sensor_id;sensor_type;location;lat;lon;timestamp;P1;durP1;ratioP1;P2;durP2;ratioP2
10088;SDS011;51898;49.864;8.550;2023-02-15T00:02:42;47.03;;;22.17;;
10088;SDS011;51898;49.864;8.550;2023-02-15T00:05:44;52.43;;;22.83;;
10088;SDS011;51898;49.864;8.550;2023-02-15T00:08:46;48.70;;;22.53;;
10088;SDS011;51898;49.864;8.550;2023-02-15T00:11:47;41.80;;;21.10;;
10088;SDS011;51898;49.864;8.550;2023-02-15T00:14:52;45.90;;;22.00;;
10088;SDS011;51898;49.864;8.550;2023-02-15T00:17:54;48.53;;;21.00;;
10088;SDS011;51898;49.864;8.550;2023-02-15T00:20:55;45.73;;;21.23;;
10088;SDS011;51898;49.864;8.550;2023-02-15T00:23:58;43.87;;;19.30;;
10088;SDS011;51898;49.864;8.550;2023-02-15T00:27:01;42.30;;;21.67;;
10088;SDS011;51898;49.864;8.550;2023-02-15T00:30:02;48.20;;;20.57;;
10088;SDS011;51898;49.864;8.550;2023-02-15T00:33:04;44.50;;;20.53;;
10088;SDS011;51898;49.864;8.550;2023-02-15T00:36:07;40.73;;;19.80;;
10088;SDS011;51898;49.864;8.550;2023-02-15T00:39:09;38.77;;;19.27;;
10088;SDS011;51898;49.864;8.550;2023-02-15T00:42:12;46.33;;;22.80;;
10088;SDS011;51898;49.864;8.550;2023-02-15T00:45:13;46.10;;;22.50;;
10088;SDS011;51898;49.864;8.550;2023-02-15T00:48:18;42.23;;;20.97;;
10088;SDS011;51898;49.864;8.550;2023-02-15T00:51:20;43.17;;;22.17;;
10088;SDS011;51898;49.864;8.550;2023-02-15T00:54:22;46.43;;;22.10;;
10088;SDS011;51898;49.864;8.550;2023-02-15T00:57:23;43.37;;;20.73;;
10088;SDS011;51898;49.864;8.550;2023-02-15T01:00:25;38.90;;;19.10;;
10088;SDS011;51898;49.864;8.550;2023-02-15T01:03:27;36.33;;;18.43;;
10088;SDS011;51898;49.864;8.550;2023-02-15T01:06:29;38.23;;;19.60;;
10088;SDS011;51898;49.864;8.550;2023-02-15T01:09:30;39.10;;;18.87;;
10088;SDS011;51898;49.864;8.550;2023-02-15T01:12:32;36.97;;;18.63;;
10088;SDS011;51898;49.864;8.550;2023-02-15T01:15:35;47.10;;;20.30;;
10088;SDS011;51898;49.864;8.550;2023-02-15T01:18:36;34.63;;;19.03;;
10088;SDS011;51898;49.864;8.550;2023-02-15T01:21:38;38.50;;;18.53;;
10088;SDS011;51898;49.864;8.550;2023-02-15T01:24:41;40.37;;;20.00;;
10088;SDS011;51898;49.864;8.550;2023-02-15T01:27:43;40.60;;;18.80;;
10088;SDS011;51898;49.864;8.550;2023-02-15T01:30:45;36.40;;;17.40;;
10088;SDS011;51898;49.864;8.550;2023-02-15T01:33:47;40.13;;;20.33;;
10088;SDS011;51898;49.864;8.550;2023-02-15T01:36:49;37.33;;;18.30;;
10088;SDS011;51898;49.864;8.550;2023-02-15T01:39:51;39.03;;;20.03;;
10088;SDS011;51898;49.864;8.550;2023-02-15T01:42:55;43.97;;;19.90;;
10088;SDS011;51898;49.864;8.550;2023-02-15T01:45:57;40.50;;;18.57;;
10088;SDS011;51898;49.864;8.550;2023-02-15T01:49:09;42.17;;;19.70;;
10088;SDS011;51898;49.864;8.550;2023-02-15T01:52:16;37.53;;;17.03;;
10088;SDS011;51898;49.864;8.550;2023-02-15T01:55:19;40.10;;;19.40;;
10088;SDS011;51898;49.864;8.550;2023-02-15T01:58:23;38.90;;;17.57;;
10088;SDS011;51898;49.864;8.550;2023-02-15T02:01:27;45.30;;;20.17;;
10088;SDS011;51898;49.864;8.550;2023-02-15T02:04:31;39.20;;;18.47;;
10088;SDS011;51898;49.864;8.550;2023-02-15T02:07:41;40.70;;;19.33;;
10088;SDS011;51898;49.864;8.550;2023-02-15T02:10:45;45.00;;;20.10;;
10088;SDS011;51898;49.864;8.550;2023-02-15T02:13:47;41.13;;;19.47;;
10088;SDS011;51898;49.864;8.550;2023-02-15T02:16:56;39.73;;;18.63;;
10088;SDS011;51898;49.864;8.550;2023-02-15T02:26:50;33.70;;;17.80;;
10088;SDS011;51898;49.864;8.550;2023-02-15T02:34:12;32.53;;;16.67;;
10088;SDS011;51898;49.864;8.550;2023-02-15T02:37:23;36.60;;;17.90;;
10088;SDS011;51898;49.864;8.550;2023-02-15T02:40:37;34.17;;;17.27;;
10088;SDS011;51898;49.864;8.550;2023-02-15T02:43:59;34.17;;;17.83;;
10088;SDS011;51898;49.864;8.550;2023-02-15T02:50:23;35.87;;;18.93;;
10088;SDS011;51898;49.864;8.550;2023-02-15T02:53:27;33.80;;;17.30;;
10088;SDS011;51898;49.864;8.550;2023-02-15T02:56:36;36.83;;;18.47;;
10088;SDS011;51898;49.864;8.550;2023-02-15T02:59:43;34.60;;;17.03;;
10088;SDS011;51898;49.864;8.550;2023-02-15T03:02:48;31.87;;;17.03;;
10088;SDS011;51898;49.864;8.550;2023-02-15T03:05:57;31.50;;;16.43;;
10088;SDS011;51898;49.864;8.550;2023-02-15T03:09:06;34.23;;;17.23;;
10088;SDS011;51898;49.864;8.550;2023-02-15T03:15:35;38.27;;;17.67;;
10088;SDS011;51898;49.864;8.550;2023-02-15T03:19:00;36.80;;;17.93;;
10088;SDS011;51898;49.864;8.550;2023-02-15T03:25:23;35.90;;;17.60;;
10088;SDS011;51898;49.864;8.550;2023-02-15T03:28:33;36.60;;;17.70;;
10088;SDS011;51898;49.864;8.550;2023-02-15T03:31:40;40.90;;;17.80;;
10088;SDS011;51898;49.864;8.550;2023-02-15T03:34:44;42.50;;;18.20;;
10088;SDS011;51898;49.864;8.550;2023-02-15T03:37:47;39.63;;;18.93;;
10088;SDS011;51898;49.864;8.550;2023-02-15T03:40:53;41.93;;;19.20;;
10088;SDS011;51898;49.864;8.550;2023-02-15T03:44:15;33.23;;;17.10;;
10088;SDS011;51898;49.864;8.550;2023-02-15T03:47:35;38.77;;;18.47;;
10088;SDS011;51898;49.864;8.550;2023-02-15T03:50:40;34.40;;;17.10;;
10088;SDS011;51898;49.864;8.550;2023-02-15T03:54:05;38.03;;;19.27;;
10088;SDS011;51898;49.864;8.550;2023-02-15T03:57:11;34.60;;;18.10;;
10088;SDS011;51898;49.864;8.550;2023-02-15T04:00:37;59.97;;;18.37;;
10088;SDS011;51898;49.864;8.550;2023-02-15T04:04:38;39.90;;;18.83;;
10088;SDS011;51898;49.864;8.550;2023-02-15T04:07:44;49.03;;;19.70;;
10088;SDS011;51898;49.864;8.550;2023-02-15T04:10:45;51.40;;;19.20;;
10088;SDS011;51898;49.864;8.550;2023-02-15T04:13:53;60.33;;;18.60;;
10088;SDS011;51898;49.864;8.550;2023-02-15T04:16:57;55.30;;;19.60;;
10088;SDS011;51898;49.864;8.550;2023-02-15T04:19:59;52.93;;;19.87;;
10088;SDS011;51898;49.864;8.550;2023-02-15T04:23:19;44.67;;;18.13;;
10088;SDS011;51898;49.864;8.550;2023-02-15T04:26:39;55.17;;;18.57;;
10088;SDS011;51898;49.864;8.550;2023-02-15T04:29:41;93.47;;;19.57;;
10088;SDS011;51898;49.864;8.550;2023-02-15T04:32:43;41.17;;;17.50;;
10088;SDS011;51898;49.864;8.550;2023-02-15T04:35:45;54.07;;;16.87;;
10088;SDS011;51898;49.864;8.550;2023-02-15T04:38:46;45.37;;;17.23;;
10088;SDS011;51898;49.864;8.550;2023-02-15T04:41:48;66.97;;;18.60;;
10088;SDS011;51898;49.864;8.550;2023-02-15T04:44:50;48.50;;;17.10;;
10088;SDS011;51898;49.864;8.550;2023-02-15T04:47:52;34.83;;;16.43;;
10088;SDS011;51898;49.864;8.550;2023-02-15T04:50:53;66.50;;;19.10;;
10088;SDS011;51898;49.864;8.550;2023-02-15T04:53:55;46.23;;;17.30;;
10088;SDS011;51898;49.864;8.550;2023-02-15T04:56:57;71.77;;;17.17;;
10088;SDS011;51898;49.864;8.550;2023-02-15T04:59:59;62.20;;;18.03;;
10088;SDS011;51898;49.864;8.550;2023-02-15T05:03:01;54.47;;;16.63;;
10088;SDS011;51898;49.864;8.550;2023-02-15T05:06:03;66.40;;;19.03;;
10088;SDS011;51898;49.864;8.550;2023-02-15T05:09:05;40.33;;;16.97;;
10088;SDS011;51898;49.864;8.550;2023-02-15T05:12:07;46.43;;;17.70;;
10088;SDS011;51898;49.864;8.550;2023-02-15T05:15:09;38.37;;;17.70;;
10088;SDS011;51898;49.864;8.550;2023-02-15T05:18:10;61.00;;;20.23;;
10088;SDS011;51898;49.864;8.550;2023-02-15T05:21:12;52.97;;;18.60;;
10088;SDS011;51898;49.864;8.550;2023-02-15T05:24:17;66.80;;;18.80;;
10088;SDS011;51898;49.864;8.550;2023-02-15T05:27:37;69.43;;;19.73;;
10088;SDS011;51898;49.864;8.550;2023-02-15T05:31:05;108.00;;;20.80;;
10088;SDS011;51898;49.864;8.550;2023-02-15T05:34:18;97.90;;;20.97;;
10088;SDS011;51898;49.864;8.550;2023-02-15T05:37:20;93.40;;;22.53;;
10088;SDS011;51898;49.864;8.550;2023-02-15T05:40:21;68.23;;;19.27;;
10088;SDS011;51898;49.864;8.550;2023-02-15T05:43:23;103.47;;;21.63;;
10088;SDS011;51898;49.864;8.550;2023-02-15T05:46:25;58.40;;;19.40;;
10088;SDS011;51898;49.864;8.550;2023-02-15T05:49:27;59.27;;;19.13;;
10088;SDS011;51898;49.864;8.550;2023-02-15T05:52:28;73.70;;;21.13;;
10088;SDS011;51898;49.864;8.550;2023-02-15T05:55:30;120.60;;;22.17;;
10088;SDS011;51898;49.864;8.550;2023-02-15T05:58:33;89.60;;;20.03;;
10088;SDS011;51898;49.864;8.550;2023-02-15T06:01:39;71.43;;;18.67;;
10088;SDS011;51898;49.864;8.550;2023-02-15T06:04:41;70.83;;;19.40;;
10088;SDS011;51898;49.864;8.550;2023-02-15T06:07:43;55.17;;;19.77;;
10088;SDS011;51898;49.864;8.550;2023-02-15T06:10:46;36.43;;;15.90;;
10088;SDS011;51898;49.864;8.550;2023-02-15T06:13:47;44.87;;;17.60;;
10088;SDS011;51898;49.864;8.550;2023-02-15T06:16:49;41.10;;;17.17;;
10088;SDS011;51898;49.864;8.550;2023-02-15T06:19:53;45.90;;;17.47;;
10088;SDS011;51898;49.864;8.550;2023-02-15T06:22:55;32.10;;;15.30;;
10088;SDS011;51898;49.864;8.550;2023-02-15T06:26:00;37.23;;;16.40;;
10088;SDS011;51898;49.864;8.550;2023-02-15T06:29:02;32.60;;;15.43;;
10088;SDS011;51898;49.864;8.550;2023-02-15T06:32:04;33.47;;;16.20;;
10088;SDS011;51898;49.864;8.550;2023-02-15T06:35:06;37.93;;;16.97;;
10088;SDS011;51898;49.864;8.550;2023-02-15T06:38:08;34.97;;;16.37;;
10088;SDS011;51898;49.864;8.550;2023-02-15T06:41:10;29.90;;;16.47;;
10088;SDS011;51898;49.864;8.550;2023-02-15T06:44:12;31.57;;;16.30;;
10088;SDS011;51898;49.864;8.550;2023-02-15T06:47:13;33.73;;;15.83;;
10088;SDS011;51898;49.864;8.550;2023-02-15T06:50:15;44.03;;;18.47;;
10088;SDS011;51898;49.864;8.550;2023-02-15T06:53:17;37.30;;;16.47;;
10088;SDS011;51898;49.864;8.550;2023-02-15T06:56:19;38.07;;;17.43;;
10088;SDS011;51898;49.864;8.550;2023-02-15T06:59:20;38.53;;;17.30;;
10088;SDS011;51898;49.864;8.550;2023-02-15T07:02:22;36.37;;;15.13;;
10088;SDS011;51898;49.864;8.550;2023-02-15T07:05:25;32.83;;;16.27;;
10088;SDS011;51898;49.864;8.550;2023-02-15T07:08:32;33.20;;;16.60;;
10088;SDS011;51898;49.864;8.550;2023-02-15T07:11:33;28.77;;;16.17;;
10088;SDS011;51898;49.864;8.550;2023-02-15T07:14:54;32.67;;;14.63;;
10088;SDS011;51898;49.864;8.550;2023-02-15T07:17:56;36.40;;;16.57;;
10088;SDS011;51898;49.864;8.550;2023-02-15T07:20:59;31.13;;;14.50;;
10088;SDS011;51898;49.864;8.550;2023-02-15T07:24:01;41.13;;;17.03;;
10088;SDS011;51898;49.864;8.550;2023-02-15T07:27:03;35.67;;;17.07;;
10088;SDS011;51898;49.864;8.550;2023-02-15T07:30:09;42.00;;;17.53;;
10088;SDS011;51898;49.864;8.550;2023-02-15T07:33:12;37.70;;;16.13;;
10088;SDS011;51898;49.864;8.550;2023-02-15T07:36:27;37.43;;;16.67;;
10088;SDS011;51898;49.864;8.550;2023-02-15T07:39:29;27.80;;;15.00;;
10088;SDS011;51898;49.864;8.550;2023-02-15T07:42:37;44.03;;;15.77;;
10088;SDS011;51898;49.864;8.550;2023-02-15T07:45:39;39.47;;;16.77;;
10088;SDS011;51898;49.864;8.550;2023-02-15T07:48:43;33.80;;;16.10;;
10088;SDS011;51898;49.864;8.550;2023-02-15T07:51:45;35.03;;;15.87;;
10088;SDS011;51898;49.864;8.550;2023-02-15T07:54:47;35.57;;;16.00;;
10088;SDS011;51898;49.864;8.550;2023-02-15T07:57:49;35.70;;;17.40;;
10088;SDS011;51898;49.864;8.550;2023-02-15T08:00:51;31.83;;;15.10;;
10088;SDS011;51898;49.864;8.550;2023-02-15T08:03:59;30.87;;;14.50;;
10088;SDS011;51898;49.864;8.550;2023-02-15T08:07:01;37.10;;;16.17;;
10088;SDS011;51898;49.864;8.550;2023-02-15T08:10:03;32.07;;;15.63;;
10088;SDS011;51898;49.864;8.550;2023-02-15T08:13:05;40.27;;;17.80;;
10088;SDS011;51898;49.864;8.550;2023-02-15T08:16:07;38.30;;;16.50;;
10088;SDS011;51898;49.864;8.550;2023-02-15T08:19:10;37.60;;;16.90;;
10088;SDS011;51898;49.864;8.550;2023-02-15T08:22:28;38.50;;;16.47;;
10088;SDS011;51898;49.864;8.550;2023-02-15T08:25:30;41.73;;;18.37;;
10088;SDS011;51898;49.864;8.550;2023-02-15T08:28:32;36.40;;;17.03;;
10088;SDS011;51898;49.864;8.550;2023-02-15T08:31:34;40.10;;;17.50;;
10088;SDS011;51898;49.864;8.550;2023-02-15T08:34:41;37.83;;;17.10;;
10088;SDS011;51898;49.864;8.550;2023-02-15T08:37:43;47.30;;;19.60;;
10088;SDS011;51898;49.864;8.550;2023-02-15T08:40:46;39.57;;;18.37;;
10088;SDS011;51898;49.864;8.550;2023-02-15T08:43:49;48.30;;;18.83;;
10088;SDS011;51898;49.864;8.550;2023-02-15T08:46:52;42.77;;;18.73;;
10088;SDS011;51898;49.864;8.550;2023-02-15T08:49:54;46.70;;;19.50;;
10088;SDS011;51898;49.864;8.550;2023-02-15T08:52:56;46.30;;;20.00;;
10088;SDS011;51898;49.864;8.550;2023-02-15T08:55:58;45.47;;;18.63;;
10088;SDS011;51898;49.864;8.550;2023-02-15T08:59:00;41.63;;;19.27;;
10088;SDS011;51898;49.864;8.550;2023-02-15T09:02:02;48.87;;;19.60;;
10088;SDS011;51898;49.864;8.550;2023-02-15T09:05:04;44.23;;;19.97;;
10088;SDS011;51898;49.864;8.550;2023-02-15T09:08:06;39.00;;;19.07;;
10088;SDS011;51898;49.864;8.550;2023-02-15T09:11:09;39.73;;;18.47;;
10088;SDS011;51898;49.864;8.550;2023-02-15T09:14:17;49.53;;;19.47;;
10088;SDS011;51898;49.864;8.550;2023-02-15T09:17:21;43.30;;;19.80;;
10088;SDS011;51898;49.864;8.550;2023-02-15T09:20:23;45.73;;;19.30;;
10088;SDS011;51898;49.864;8.550;2023-02-15T09:23:25;38.97;;;17.90;;
10088;SDS011;51898;49.864;8.550;2023-02-15T09:26:29;37.77;;;18.80;;
10088;SDS011;51898;49.864;8.550;2023-02-15T09:29:32;49.50;;;21.70;;
10088;SDS011;51898;49.864;8.550;2023-02-15T09:32:35;43.73;;;19.63;;
10088;SDS011;51898;49.864;8.550;2023-02-15T09:35:37;46.23;;;19.73;;
10088;SDS011;51898;49.864;8.550;2023-02-15T09:38:38;46.77;;;19.60;;
10088;SDS011;51898;49.864;8.550;2023-02-15T09:42:00;46.33;;;19.97;;
10088;SDS011;51898;49.864;8.550;2023-02-15T09:45:23;41.23;;;19.63;;
10088;SDS011;51898;49.864;8.550;2023-02-15T09:49:01;48.77;;;21.83;;
10088;SDS011;51898;49.864;8.550;2023-02-15T09:58:46;49.13;;;21.77;;
10088;SDS011;51898;49.864;8.550;2023-02-15T10:02:01;53.70;;;24.20;;
10088;SDS011;51898;49.864;8.550;2023-02-15T10:08:24;48.73;;;21.40;;
10088;SDS011;51898;49.864;8.550;2023-02-15T10:18:22;59.67;;;24.37;;
10088;SDS011;51898;49.864;8.550;2023-02-15T10:22:04;55.53;;;26.67;;
10088;SDS011;51898;49.864;8.550;2023-02-15T10:25:26;58.80;;;24.80;;
10088;SDS011;51898;49.864;8.550;2023-02-15T10:28:42;54.23;;;23.50;;
10088;SDS011;51898;49.864;8.550;2023-02-15T10:31:51;53.33;;;24.00;;
10088;SDS011;51898;49.864;8.550;2023-02-15T10:35:36;55.10;;;24.23;;
10088;SDS011;51898;49.864;8.550;2023-02-15T10:42:11;58.23;;;25.03;;
10088;SDS011;51898;49.864;8.550;2023-02-15T10:45:27;65.63;;;27.03;;
10088;SDS011;51898;49.864;8.550;2023-02-15T10:48:57;69.27;;;27.63;;
10088;SDS011;51898;49.864;8.550;2023-02-15T10:56:01;63.60;;;25.40;;
10088;SDS011;51898;49.864;8.550;2023-02-15T11:03:02;65.40;;;26.57;;
10088;SDS011;51898;49.864;8.550;2023-02-15T11:06:15;59.70;;;25.30;;
10088;SDS011;51898;49.864;8.550;2023-02-15T11:09:22;71.77;;;28.30;;
10088;SDS011;51898;49.864;8.550;2023-02-15T11:12:27;71.07;;;28.20;;
10088;SDS011;51898;49.864;8.550;2023-02-15T11:15:38;75.23;;;28.80;;
10088;SDS011;51898;49.864;8.550;2023-02-15T11:18:44;73.33;;;26.90;;
10088;SDS011;51898;49.864;8.550;2023-02-15T11:21:57;71.90;;;26.83;;
10088;SDS011;51898;49.864;8.550;2023-02-15T11:25:01;71.47;;;28.27;;
10088;SDS011;51898;49.864;8.550;2023-02-15T11:28:19;75.37;;;30.97;;
10088;SDS011;51898;49.864;8.550;2023-02-15T11:31:26;71.27;;;31.83;;
10088;SDS011;51898;49.864;8.550;2023-02-15T11:34:46;79.83;;;32.50;;
10088;SDS011;51898;49.864;8.550;2023-02-15T11:38:20;80.13;;;29.77;;
10088;SDS011;51898;49.864;8.550;2023-02-15T11:41:27;71.17;;;29.67;;
10088;SDS011;51898;49.864;8.550;2023-02-15T11:44:34;78.33;;;30.53;;
10088;SDS011;51898;49.864;8.550;2023-02-15T11:47:43;75.47;;;32.37;;
10088;SDS011;51898;49.864;8.550;2023-02-15T11:50:45;71.57;;;30.17;;
10088;SDS011;51898;49.864;8.550;2023-02-15T11:53:47;68.20;;;31.23;;
10088;SDS011;51898;49.864;8.550;2023-02-15T11:56:50;72.77;;;27.40;;
10088;SDS011;51898;49.864;8.550;2023-02-15T11:59:53;68.53;;;27.80;;
10088;SDS011;51898;49.864;8.550;2023-02-15T12:03:03;67.27;;;28.60;;
10088;SDS011;51898;49.864;8.550;2023-02-15T12:06:22;61.63;;;28.03;;
10088;SDS011;51898;49.864;8.550;2023-02-15T12:09:41;75.77;;;29.93;;
10088;SDS011;51898;49.864;8.550;2023-02-15T12:16:14;58.13;;;26.93;;
10088;SDS011;51898;49.864;8.550;2023-02-15T12:19:24;63.03;;;30.03;;
10088;SDS011;51898;49.864;8.550;2023-02-15T12:22:51;68.80;;;28.40;;
10088;SDS011;51898;49.864;8.550;2023-02-15T12:26:03;66.50;;;28.10;;
10088;SDS011;51898;49.864;8.550;2023-02-15T12:29:12;69.10;;;27.80;;
10088;SDS011;51898;49.864;8.550;2023-02-15T12:32:18;61.40;;;27.67;;
10088;SDS011;51898;49.864;8.550;2023-02-15T12:35:30;61.60;;;25.80;;
10088;SDS011;51898;49.864;8.550;2023-02-15T12:38:33;57.40;;;27.30;;
10088;SDS011;51898;49.864;8.550;2023-02-15T12:41:36;61.33;;;28.30;;
10088;SDS011;51898;49.864;8.550;2023-02-15T12:44:38;55.17;;;27.47;;
10088;SDS011;51898;49.864;8.550;2023-02-15T12:48:07;58.83;;;28.67;;
10088;SDS011;51898;49.864;8.550;2023-02-15T12:51:12;59.87;;;27.80;;
10088;SDS011;51898;49.864;8.550;2023-02-15T12:57:42;59.50;;;27.60;;
10088;SDS011;51898;49.864;8.550;2023-02-15T13:00:47;57.80;;;27.40;;
10088;SDS011;51898;49.864;8.550;2023-02-15T13:03:59;63.03;;;28.37;;
10088;SDS011;51898;49.864;8.550;2023-02-15T13:07:04;70.13;;;31.97;;
10088;SDS011;51898;49.864;8.550;2023-02-15T13:10:21;59.53;;;28.60;;
10088;SDS011;51898;49.864;8.550;2023-02-15T13:13:37;65.87;;;29.13;;
10088;SDS011;51898;49.864;8.550;2023-02-15T13:16:58;60.47;;;28.93;;
10088;SDS011;51898;49.864;8.550;2023-02-15T13:20:06;66.17;;;32.30;;
10088;SDS011;51898;49.864;8.550;2023-02-15T13:23:26;59.53;;;29.17;;
10088;SDS011;51898;49.864;8.550;2023-02-15T13:26:30;60.37;;;29.47;;
10088;SDS011;51898;49.864;8.550;2023-02-15T13:29:34;55.87;;;28.57;;
10088;SDS011;51898;49.864;8.550;2023-02-15T13:32:38;64.80;;;31.13;;
10088;SDS011;51898;49.864;8.550;2023-02-15T13:35:43;62.23;;;29.60;;
10088;SDS011;51898;49.864;8.550;2023-02-15T13:39:20;60.40;;;29.30;;
10088;SDS011;51898;49.864;8.550;2023-02-15T13:42:48;63.00;;;30.60;;
10088;SDS011;51898;49.864;8.550;2023-02-15T13:59:43;66.40;;;31.10;;
10088;SDS011;51898;49.864;8.550;2023-02-15T14:06:39;60.20;;;30.40;;
10088;SDS011;51898;49.864;8.550;2023-02-15T14:13:21;60.87;;;29.83;;
10088;SDS011;51898;49.864;8.550;2023-02-15T14:20:18;64.00;;;29.30;;
10088;SDS011;51898;49.864;8.550;2023-02-15T14:33:07;54.40;;;28.20;;
10088;SDS011;51898;49.864;8.550;2023-02-15T14:36:25;49.27;;;25.40;;
10088;SDS011;51898;49.864;8.550;2023-02-15T14:46:49;50.10;;;26.17;;
10088;SDS011;51898;49.864;8.550;2023-02-15T14:50:35;56.37;;;29.10;;
10088;SDS011;51898;49.864;8.550;2023-02-15T14:53:38;60.00;;;29.53;;
10088;SDS011;51898;49.864;8.550;2023-02-15T14:56:40;62.00;;;31.33;;
10088;SDS011;51898;49.864;8.550;2023-02-15T15:02:47;60.10;;;29.13;;
10088;SDS011;51898;49.864;8.550;2023-02-15T15:05:52;57.50;;;29.63;;
10088;SDS011;51898;49.864;8.550;2023-02-15T15:12:36;60.37;;;28.30;;
10088;SDS011;51898;49.864;8.550;2023-02-15T15:15:45;62.47;;;29.20;;
10088;SDS011;51898;49.864;8.550;2023-02-15T15:18:48;65.13;;;31.20;;
10088;SDS011;51898;49.864;8.550;2023-02-15T15:28:29;70.67;;;33.27;;
10088;SDS011;51898;49.864;8.550;2023-02-15T15:31:37;67.10;;;32.10;;
10088;SDS011;51898;49.864;8.550;2023-02-15T15:34:52;68.90;;;32.70;;
10088;SDS011;51898;49.864;8.550;2023-02-15T15:42:18;69.13;;;31.67;;
10088;SDS011;51898;49.864;8.550;2023-02-15T15:45:41;65.60;;;32.30;;
10088;SDS011;51898;49.864;8.550;2023-02-15T15:48:51;60.63;;;30.30;;
10088;SDS011;51898;49.864;8.550;2023-02-15T15:51:54;61.90;;;30.67;;
10088;SDS011;51898;49.864;8.550;2023-02-15T15:54:56;65.17;;;33.33;;
10088;SDS011;51898;49.864;8.550;2023-02-15T15:58:04;50.63;;;27.03;;
10088;SDS011;51898;49.864;8.550;2023-02-15T16:01:09;79.20;;;32.50;;
10088;SDS011;51898;49.864;8.550;2023-02-15T16:04:25;58.87;;;28.10;;
10088;SDS011;51898;49.864;8.550;2023-02-15T16:07:32;62.53;;;31.57;;
10088;SDS011;51898;49.864;8.550;2023-02-15T16:10:33;62.90;;;31.07;;
10088;SDS011;51898;49.864;8.550;2023-02-15T16:13:39;62.73;;;32.50;;
10088;SDS011;51898;49.864;8.550;2023-02-15T16:16:45;57.73;;;30.00;;
10088;SDS011;51898;49.864;8.550;2023-02-15T16:19:52;64.13;;;31.10;;
10088;SDS011;51898;49.864;8.550;2023-02-15T16:29:51;68.40;;;33.03;;
10088;SDS011;51898;49.864;8.550;2023-02-15T16:32:54;73.90;;;37.00;;
10088;SDS011;51898;49.864;8.550;2023-02-15T16:36:04;65.57;;;32.13;;
10088;SDS011;51898;49.864;8.550;2023-02-15T16:39:12;63.20;;;32.33;;
10088;SDS011;51898;49.864;8.550;2023-02-15T16:42:19;64.43;;;30.80;;
10088;SDS011;51898;49.864;8.550;2023-02-15T16:45:22;67.73;;;32.30;;
10088;SDS011;51898;49.864;8.550;2023-02-15T16:48:27;66.40;;;32.33;;
10088;SDS011;51898;49.864;8.550;2023-02-15T16:51:29;69.47;;;32.83;;
10088;SDS011;51898;49.864;8.550;2023-02-15T16:54:33;79.57;;;34.27;;
10088;SDS011;51898;49.864;8.550;2023-02-15T16:57:36;71.93;;;32.33;;
10088;SDS011;51898;49.864;8.550;2023-02-15T17:00:43;71.37;;;33.73;;
10088;SDS011;51898;49.864;8.550;2023-02-15T17:03:45;80.27;;;35.00;;
10088;SDS011;51898;49.864;8.550;2023-02-15T17:07:12;71.97;;;33.07;;
10088;SDS011;51898;49.864;8.550;2023-02-15T17:10:28;76.00;;;33.50;;
10088;SDS011;51898;49.864;8.550;2023-02-15T17:13:38;84.13;;;35.80;;
10088;SDS011;51898;49.864;8.550;2023-02-15T17:16:59;80.90;;;35.67;;
10088;SDS011;51898;49.864;8.550;2023-02-15T17:20:10;79.00;;;34.93;;
10088;SDS011;51898;49.864;8.550;2023-02-15T17:23:30;83.00;;;35.73;;
10088;SDS011;51898;49.864;8.550;2023-02-15T17:26:43;81.97;;;35.53;;
10088;SDS011;51898;49.864;8.550;2023-02-15T17:30:01;83.97;;;35.90;;
10088;SDS011;51898;49.864;8.550;2023-02-15T17:33:20;80.30;;;35.50;;
10088;SDS011;51898;49.864;8.550;2023-02-15T17:36:25;87.53;;;37.00;;
10088;SDS011;51898;49.864;8.550;2023-02-15T17:39:30;80.53;;;33.17;;
10088;SDS011;51898;49.864;8.550;2023-02-15T17:42:33;75.03;;;32.23;;
10088;SDS011;51898;49.864;8.550;2023-02-15T17:45:35;76.00;;;35.07;;
10088;SDS011;51898;49.864;8.550;2023-02-15T17:48:46;74.70;;;35.67;;
10088;SDS011;51898;49.864;8.550;2023-02-15T17:51:49;83.17;;;35.53;;
10088;SDS011;51898;49.864;8.550;2023-02-15T17:54:51;74.97;;;34.40;;
10088;SDS011;51898;49.864;8.550;2023-02-15T17:58:12;67.90;;;30.90;;
10088;SDS011;51898;49.864;8.550;2023-02-15T18:01:16;68.47;;;33.00;;
10088;SDS011;51898;49.864;8.550;2023-02-15T18:04:39;81.73;;;33.60;;
10088;SDS011;51898;49.864;8.550;2023-02-15T18:07:59;74.90;;;33.43;;
10088;SDS011;51898;49.864;8.550;2023-02-15T18:11:19;75.77;;;35.70;;
10088;SDS011;51898;49.864;8.550;2023-02-15T18:14:40;69.30;;;32.90;;
10088;SDS011;51898;49.864;8.550;2023-02-15T18:17:43;76.33;;;34.60;;
10088;SDS011;51898;49.864;8.550;2023-02-15T18:20:46;76.13;;;32.73;;
10088;SDS011;51898;49.864;8.550;2023-02-15T18:23:48;74.10;;;33.57;;
10088;SDS011;51898;49.864;8.550;2023-02-15T18:26:51;84.23;;;34.80;;
10088;SDS011;51898;49.864;8.550;2023-02-15T18:29:55;80.30;;;35.60;;
10088;SDS011;51898;49.864;8.550;2023-02-15T18:32:57;78.23;;;33.93;;
10088;SDS011;51898;49.864;8.550;2023-02-15T18:36:00;76.80;;;34.63;;
10088;SDS011;51898;49.864;8.550;2023-02-15T18:39:04;77.63;;;34.80;;
10088;SDS011;51898;49.864;8.550;2023-02-15T18:42:32;77.37;;;36.27;;
10088;SDS011;51898;49.864;8.550;2023-02-15T18:45:35;80.60;;;34.73;;
10088;SDS011;51898;49.864;8.550;2023-02-15T18:48:37;72.77;;;36.37;;
10088;SDS011;51898;49.864;8.550;2023-02-15T18:51:39;75.93;;;35.07;;
10088;SDS011;51898;49.864;8.550;2023-02-15T18:54:41;70.70;;;34.30;;
10088;SDS011;51898;49.864;8.550;2023-02-15T18:57:45;75.83;;;34.13;;
10088;SDS011;51898;49.864;8.550;2023-02-15T19:00:48;83.07;;;36.57;;
10088;SDS011;51898;49.864;8.550;2023-02-15T19:03:50;80.20;;;35.23;;
10088;SDS011;51898;49.864;8.550;2023-02-15T19:06:52;82.77;;;35.10;;
10088;SDS011;51898;49.864;8.550;2023-02-15T19:09:55;81.93;;;36.10;;
10088;SDS011;51898;49.864;8.550;2023-02-15T19:12:59;78.40;;;35.93;;
10088;SDS011;51898;49.864;8.550;2023-02-15T19:16:00;78.47;;;36.50;;
10088;SDS011;51898;49.864;8.550;2023-02-15T19:19:03;78.17;;;35.37;;
10088;SDS011;51898;49.864;8.550;2023-02-15T19:22:13;73.30;;;33.60;;
10088;SDS011;51898;49.864;8.550;2023-02-15T19:25:28;82.73;;;36.60;;
10088;SDS011;51898;49.864;8.550;2023-02-15T19:28:32;72.13;;;34.07;;
10088;SDS011;51898;49.864;8.550;2023-02-15T19:31:34;77.03;;;36.00;;
10088;SDS011;51898;49.864;8.550;2023-02-15T19:34:36;78.17;;;35.07;;
10088;SDS011;51898;49.864;8.550;2023-02-15T19:37:38;76.00;;;35.33;;
10088;SDS011;51898;49.864;8.550;2023-02-15T19:40:42;69.50;;;35.17;;
10088;SDS011;51898;49.864;8.550;2023-02-15T19:43:49;66.30;;;32.47;;
10088;SDS011;51898;49.864;8.550;2023-02-15T19:46:55;84.43;;;38.10;;
10088;SDS011;51898;49.864;8.550;2023-02-15T19:49:57;76.93;;;34.30;;
10088;SDS011;51898;49.864;8.550;2023-02-15T19:53:03;90.17;;;36.80;;
10088;SDS011;51898;49.864;8.550;2023-02-15T19:56:09;79.03;;;35.30;;
10088;SDS011;51898;49.864;8.550;2023-02-15T19:59:23;79.07;;;35.93;;
10088;SDS011;51898;49.864;8.550;2023-02-15T20:02:29;88.37;;;36.03;;
10088;SDS011;51898;49.864;8.550;2023-02-15T20:05:31;83.97;;;34.33;;
10088;SDS011;51898;49.864;8.550;2023-02-15T20:08:38;86.47;;;38.20;;
10088;SDS011;51898;49.864;8.550;2023-02-15T20:11:42;86.33;;;39.10;;
10088;SDS011;51898;49.864;8.550;2023-02-15T20:14:43;86.33;;;36.80;;
10088;SDS011;51898;49.864;8.550;2023-02-15T20:17:45;95.03;;;37.33;;